sensor_id;sensor_type;location;lat;lon;timestamp;temperature;humidity
58582;DHT22;44361;51.476;5.700;2023-06-10T00:01:32;21.50;82.60
58582;DHT22;44361;51.476;5.700;2023-06-10T00:03:59;21.40;82.50
58582;DHT22;44361;51.476;5.700;2023-06-10T00:06:25;21.30;82.60
58582;DHT22;44361;51.476;5.700;2023-06-10T00:08:51;21.30;83.10
58582;DHT22;44361;51.476;5.700;2023-06-10T00:11:16;21.20;83.20
58582;DHT22;44361;51.476;5.700;2023-06-10T00:13:42;21.10;83.40
58582;DHT22;44361;51.476;5.700;2023-06-10T00:16:08;21.10;84.00
58582;DHT22;44361;51.476;5.700;2023-06-10T00:18:33;21.00;84.10
58582;DHT22;44361;51.476;5.700;2023-06-10T00:21:02;21.00;84.40
58582;DHT22;44361;51.476;5.700;2023-06-10T00:23:30;20.90;85.30
58582;DHT22;44361;51.476;5.700;2023-06-10T00:26:03;20.90;84.80
58582;DHT22;44361;51.476;5.700;2023-06-10T00:28:28;20.90;85.00
58582;DHT22;44361;51.476;5.700;2023-06-10T00:30:54;20.80;85.10
58582;DHT22;44361;51.476;5.700;2023-06-10T00:33:19;20.80;85.50
58582;DHT22;44361;51.476;5.700;2023-06-10T00:35:45;20.80;85.80
58582;DHT22;44361;51.476;5.700;2023-06-10T00:38:12;20.80;86.00
58582;DHT22;44361;51.476;5.700;2023-06-10T00:40:41;20.70;85.90
58582;DHT22;44361;51.476;5.700;2023-06-10T00:43:07;20.70;86.40
58582;DHT22;44361;51.476;5.700;2023-06-10T00:45:33;20.60;86.70
58582;DHT22;44361;51.476;5.700;2023-06-10T00:48:02;20.50;86.90
58582;DHT22;44361;51.476;5.700;2023-06-10T00:50:28;20.50;87.40
58582;DHT22;44361;51.476;5.700;2023-06-10T00:52:54;20.40;87.80
58582;DHT22;44361;51.476;5.700;2023-06-10T00:55:20;20.30;88.20
58582;DHT22;44361;51.476;5.700;2023-06-10T00:57:46;20.30;88.50
58582;DHT22;44361;51.476;5.700;2023-06-10T01:00:14;20.20;88.90
58582;DHT22;44361;51.476;5.700;2023-06-10T01:02:40;20.20;89.40
58582;DHT22;44361;51.476;5.700;2023-06-10T01:05:07;20.10;89.80
58582;DHT22;44361;51.476;5.700;2023-06-10T01:10:14;19.90;90.40
58582;DHT22;44361;51.476;5.700;2023-06-10T01:12:49;19.90;90.70
58582;DHT22;44361;51.476;5.700;2023-06-10T01:15:18;19.80;90.90
58582;DHT22;44361;51.476;5.700;2023-06-10T01:18:03;19.70;91.30
58582;DHT22;44361;51.476;5.700;2023-06-10T01:20:31;19.70;91.50
58582;DHT22;44361;51.476;5.700;2023-06-10T01:22:59;19.60;91.60
58582;DHT22;44361;51.476;5.700;2023-06-10T01:25:26;19.50;91.70
58582;DHT22;44361;51.476;5.700;2023-06-10T01:28:02;19.50;92.10
58582;DHT22;44361;51.476;5.700;2023-06-10T01:30:32;19.40;92.40
58582;DHT22;44361;51.476;5.700;2023-06-10T01:33:03;19.30;92.40
58582;DHT22;44361;51.476;5.700;2023-06-10T01:35:30;19.30;92.60
58582;DHT22;44361;51.476;5.700;2023-06-10T01:37:58;19.20;92.90
58582;DHT22;44361;51.476;5.700;2023-06-10T01:40:24;19.10;93.30
58582;DHT22;44361;51.476;5.700;2023-06-10T01:42:51;19.00;93.50
58582;DHT22;44361;51.476;5.700;2023-06-10T01:45:17;19.00;93.80
58582;DHT22;44361;51.476;5.700;2023-06-10T01:47:43;19.00;93.90
58582;DHT22;44361;51.476;5.700;2023-06-10T01:50:09;18.90;94.10
58582;DHT22;44361;51.476;5.700;2023-06-10T01:52:34;18.90;94.20
58582;DHT22;44361;51.476;5.700;2023-06-10T01:55:00;18.90;94.40
58582;DHT22;44361;51.476;5.700;2023-06-10T01:57:26;18.90;94.50
58582;DHT22;44361;51.476;5.700;2023-06-10T01:59:51;18.90;94.60
58582;DHT22;44361;51.476;5.700;2023-06-10T02:02:17;18.70;95.00
58582;DHT22;44361;51.476;5.700;2023-06-10T02:04:42;18.60;95.30
58582;DHT22;44361;51.476;5.700;2023-06-10T02:07:08;18.60;95.50
58582;DHT22;44361;51.476;5.700;2023-06-10T02:09:33;18.60;95.60
58582;DHT22;44361;51.476;5.700;2023-06-10T02:12:02;18.60;95.80
58582;DHT22;44361;51.476;5.700;2023-06-10T02:14:28;18.60;95.90
58582;DHT22;44361;51.476;5.700;2023-06-10T02:16:54;18.50;96.10
58582;DHT22;44361;51.476;5.700;2023-06-10T02:19:22;18.50;96.40
58582;DHT22;44361;51.476;5.700;2023-06-10T02:21:47;18.30;96.60
58582;DHT22;44361;51.476;5.700;2023-06-10T02:24:13;18.30;97.00
58582;DHT22;44361;51.476;5.700;2023-06-10T02:26:39;18.30;97.20
58582;DHT22;44361;51.476;5.700;2023-06-10T02:29:05;18.30;97.50
58582;DHT22;44361;51.476;5.700;2023-06-10T02:31:31;18.30;97.60
58582;DHT22;44361;51.476;5.700;2023-06-10T02:33:56;18.30;97.80
58582;DHT22;44361;51.476;5.700;2023-06-10T02:36:22;18.30;98.00
58582;DHT22;44361;51.476;5.700;2023-06-10T02:38:49;18.20;98.10
58582;DHT22;44361;51.476;5.700;2023-06-10T02:41:15;18.20;98.30
58582;DHT22;44361;51.476;5.700;2023-06-10T02:43:40;18.10;98.60
58582;DHT22;44361;51.476;5.700;2023-06-10T02:46:06;18.00;98.90
58582;DHT22;44361;51.476;5.700;2023-06-10T02:48:31;18.00;99.20
58582;DHT22;44361;51.476;5.700;2023-06-10T02:50:57;18.00;99.30
58582;DHT22;44361;51.476;5.700;2023-06-10T02:53:22;18.00;99.50
58582;DHT22;44361;51.476;5.700;2023-06-10T02:55:48;17.90;99.70
58582;DHT22;44361;51.476;5.700;2023-06-10T02:58:13;17.90;99.90
58582;DHT22;44361;51.476;5.700;2023-06-10T03:00:39;17.90;99.90
58582;DHT22;44361;51.476;5.700;2023-06-10T03:03:06;17.80;99.90
58582;DHT22;44361;51.476;5.700;2023-06-10T03:05:32;17.70;99.90
58582;DHT22;44361;51.476;5.700;2023-06-10T03:07:58;17.80;99.90
58582;DHT22;44361;51.476;5.700;2023-06-10T03:10:24;17.80;99.90
58582;DHT22;44361;51.476;5.700;2023-06-10T03:12:50;17.70;99.90
58582;DHT22;44361;51.476;5.700;2023-06-10T03:15:16;17.70;99.90
58582;DHT22;44361;51.476;5.700;2023-06-10T03:17:41;17.70;99.90
58582;DHT22;44361;51.476;5.700;2023-06-10T03:20:07;17.70;99.90
58582;DHT22;44361;51.476;5.700;2023-06-10T03:22:35;17.60;99.90
58582;DHT22;44361;51.476;5.700;2023-06-10T03:25:01;17.60;99.90
58582;DHT22;44361;51.476;5.700;2023-06-10T03:27:27;17.60;99.90
58582;DHT22;44361;51.476;5.700;2023-06-10T03:29:54;17.60;99.90
58582;DHT22;44361;51.476;5.700;2023-06-10T03:32:20;17.50;99.90
58582;DHT22;44361;51.476;5.700;2023-06-10T03:34:45;17.50;99.90
58582;DHT22;44361;51.476;5.700;2023-06-10T03:37:13;17.50;99.90
58582;DHT22;44361;51.476;5.700;2023-06-10T03:39:38;17.40;99.90
58582;DHT22;44361;51.476;5.700;2023-06-10T03:42:04;17.40;99.90
58582;DHT22;44361;51.476;5.700;2023-06-10T03:44:30;17.40;99.90
58582;DHT22;44361;51.476;5.700;2023-06-10T03:46:55;17.40;99.90
58582;DHT22;44361;51.476;5.700;2023-06-10T03:49:21;17.40;99.90
58582;DHT22;44361;51.476;5.700;2023-06-10T03:51:52;17.40;99.90
58582;DHT22;44361;51.476;5.700;2023-06-10T03:54:17;17.40;99.90
58582;DHT22;44361;51.476;5.700;2023-06-10T03:56:43;17.40;99.90
58582;DHT22;44361;51.476;5.700;2023-06-10T03:59:09;17.40;99.90
58582;DHT22;44361;51.476;5.700;2023-06-10T04:01:35;17.40;99.90
58582;DHT22;44361;51.476;5.700;2023-06-10T04:04:02;17.50;99.90
58582;DHT22;44361;51.476;5.700;2023-06-10T04:06:28;17.50;99.90
58582;DHT22;44361;51.476;5.700;2023-06-10T04:08:54;17.50;99.90
58582;DHT22;44361;51.476;5.700;2023-06-10T04:11:22;17.60;99.90
58582;DHT22;44361;51.476;5.700;2023-06-10T04:13:49;17.60;99.90
58582;DHT22;44361;51.476;5.700;2023-06-10T04:16:14;17.60;99.90
58582;DHT22;44361;51.476;5.700;2023-06-10T04:18:40;17.60;99.90
58582;DHT22;44361;51.476;5.700;2023-06-10T04:21:07;17.80;99.90
58582;DHT22;44361;51.476;5.700;2023-06-10T04:23:35;17.80;99.90
58582;DHT22;44361;51.476;5.700;2023-06-10T04:26:00;17.80;99.90
58582;DHT22;44361;51.476;5.700;2023-06-10T04:28:26;17.80;99.90
58582;DHT22;44361;51.476;5.700;2023-06-10T04:30:52;17.90;99.90
58582;DHT22;44361;51.476;5.700;2023-06-10T04:33:17;18.00;99.90
58582;DHT22;44361;51.476;5.700;2023-06-10T04:35:43;18.00;99.90
58582;DHT22;44361;51.476;5.700;2023-06-10T04:38:08;18.00;99.90
58582;DHT22;44361;51.476;5.700;2023-06-10T04:40:34;18.10;99.90
58582;DHT22;44361;51.476;5.700;2023-06-10T04:43:00;18.10;99.90
58582;DHT22;44361;51.476;5.700;2023-06-10T04:45:25;18.20;99.90
58582;DHT22;44361;51.476;5.700;2023-06-10T04:47:51;18.30;99.90
58582;DHT22;44361;51.476;5.700;2023-06-10T04:50:17;18.30;99.90
58582;DHT22;44361;51.476;5.700;2023-06-10T04:52:42;18.40;99.90
58582;DHT22;44361;51.476;5.700;2023-06-10T04:55:08;18.50;99.90
58582;DHT22;44361;51.476;5.700;2023-06-10T04:57:34;18.50;99.90
58582;DHT22;44361;51.476;5.700;2023-06-10T04:59:59;18.70;99.90
58582;DHT22;44361;51.476;5.700;2023-06-10T05:02:25;19.00;99.90
58582;DHT22;44361;51.476;5.700;2023-06-10T05:04:50;19.60;99.90
58582;DHT22;44361;51.476;5.700;2023-06-10T05:07:16;20.10;99.90
58582;DHT22;44361;51.476;5.700;2023-06-10T05:09:41;20.50;99.50
58582;DHT22;44361;51.476;5.700;2023-06-10T05:12:07;20.80;98.70
58582;DHT22;44361;51.476;5.700;2023-06-10T05:14:34;21.00;97.90
58582;DHT22;44361;51.476;5.700;2023-06-10T05:16:59;21.20;97.20
58582;DHT22;44361;51.476;5.700;2023-06-10T05:19:25;21.40;96.80
58582;DHT22;44361;51.476;5.700;2023-06-10T05:21:50;21.60;96.30
58582;DHT22;44361;51.476;5.700;2023-06-10T05:24:16;21.70;96.10
58582;DHT22;44361;51.476;5.700;2023-06-10T05:26:42;22.00;95.50
58582;DHT22;44361;51.476;5.700;2023-06-10T05:29:07;22.00;95.20
58582;DHT22;44361;51.476;5.700;2023-06-10T05:31:34;22.00;95.00
58582;DHT22;44361;51.476;5.700;2023-06-10T05:34:00;22.20;94.90
58582;DHT22;44361;51.476;5.700;2023-06-10T05:36:25;22.40;94.70
58582;DHT22;44361;51.476;5.700;2023-06-10T05:38:52;22.60;94.40
58582;DHT22;44361;51.476;5.700;2023-06-10T05:41:17;22.60;93.80
58582;DHT22;44361;51.476;5.700;2023-06-10T05:43:43;22.50;93.70
58582;DHT22;44361;51.476;5.700;2023-06-10T05:46:08;22.70;93.70
58582;DHT22;44361;51.476;5.700;2023-06-10T05:48:34;22.70;93.20
58582;DHT22;44361;51.476;5.700;2023-06-10T05:50:59;22.50;93.30
58582;DHT22;44361;51.476;5.700;2023-06-10T05:53:25;22.60;93.20
58582;DHT22;44361;51.476;5.700;2023-06-10T05:55:51;22.80;92.90
58582;DHT22;44361;51.476;5.700;2023-06-10T05:58:17;22.90;92.70
58582;DHT22;44361;51.476;5.700;2023-06-10T06:00:43;22.60;92.50
58582;DHT22;44361;51.476;5.700;2023-06-10T06:03:09;22.80;92.90
58582;DHT22;44361;51.476;5.700;2023-06-10T06:05:36;23.10;92.20
58582;DHT22;44361;51.476;5.700;2023-06-10T06:08:03;23.20;91.70
58582;DHT22;44361;51.476;5.700;2023-06-10T06:10:29;23.10;92.20
58582;DHT22;44361;51.476;5.700;2023-06-10T06:12:54;23.30;91.80
58582;DHT22;44361;51.476;5.700;2023-06-10T06:15:20;23.30;91.60
58582;DHT22;44361;51.476;5.700;2023-06-10T06:17:45;23.20;92.00
58582;DHT22;44361;51.476;5.700;2023-06-10T06:20:11;23.50;91.90
58582;DHT22;44361;51.476;5.700;2023-06-10T06:22:37;23.50;90.70
58582;DHT22;44361;51.476;5.700;2023-06-10T06:25:02;23.20;91.50
58582;DHT22;44361;51.476;5.700;2023-06-10T06:27:28;23.30;91.10
58582;DHT22;44361;51.476;5.700;2023-06-10T06:29:54;23.80;91.60
58582;DHT22;44361;51.476;5.700;2023-06-10T06:32:19;24.00;90.90
58582;DHT22;44361;51.476;5.700;2023-06-10T06:34:45;24.00;90.10
58582;DHT22;44361;51.476;5.700;2023-06-10T06:37:11;24.10;90.00
58582;DHT22;44361;51.476;5.700;2023-06-10T06:39:36;24.00;90.00
58582;DHT22;44361;51.476;5.700;2023-06-10T06:42:02;24.00;89.80
58582;DHT22;44361;51.476;5.700;2023-06-10T06:44:28;23.90;88.60
58582;DHT22;44361;51.476;5.700;2023-06-10T06:46:53;23.70;89.10
58582;DHT22;44361;51.476;5.700;2023-06-10T06:49:19;24.20;89.70
58582;DHT22;44361;51.476;5.700;2023-06-10T06:51:44;24.50;89.70
58582;DHT22;44361;51.476;5.700;2023-06-10T06:54:10;24.90;89.10
58582;DHT22;44361;51.476;5.700;2023-06-10T06:56:36;24.80;85.90
58582;DHT22;44361;51.476;5.700;2023-06-10T06:59:02;24.40;85.70
58582;DHT22;44361;51.476;5.700;2023-06-10T07:01:27;24.30;86.40
58582;DHT22;44361;51.476;5.700;2023-06-10T07:03:53;24.50;86.70
58582;DHT22;44361;51.476;5.700;2023-06-10T07:06:18;24.50;85.80
58582;DHT22;44361;51.476;5.700;2023-06-10T07:08:44;24.60;86.20
58582;DHT22;44361;51.476;5.700;2023-06-10T07:11:10;24.70;85.70
58582;DHT22;44361;51.476;5.700;2023-06-10T07:13:35;24.60;84.80
58582;DHT22;44361;51.476;5.700;2023-06-10T07:16:01;24.70;85.40
58582;DHT22;44361;51.476;5.700;2023-06-10T07:18:26;24.90;85.20
58582;DHT22;44361;51.476;5.700;2023-06-10T07:20:52;24.90;86.20
58582;DHT22;44361;51.476;5.700;2023-06-10T07:23:17;24.80;85.40
58582;DHT22;44361;51.476;5.700;2023-06-10T07:25:43;24.70;83.80
58582;DHT22;44361;51.476;5.700;2023-06-10T07:28:08;24.80;84.30
58582;DHT22;44361;51.476;5.700;2023-06-10T07:30:34;25.00;83.40
58582;DHT22;44361;51.476;5.700;2023-06-10T07:32:59;25.00;84.30
58582;DHT22;44361;51.476;5.700;2023-06-10T07:35:25;25.20;83.50
58582;DHT22;44361;51.476;5.700;2023-06-10T07:37:51;25.30;82.30
58582;DHT22;44361;51.476;5.700;2023-06-10T07:40:17;25.30;82.80
58582;DHT22;44361;51.476;5.700;2023-06-10T07:42:42;25.30;80.40
58582;DHT22;44361;51.476;5.700;2023-06-10T07:45:08;25.30;82.10
58582;DHT22;44361;51.476;5.700;2023-06-10T07:47:34;25.50;80.80
58582;DHT22;44361;51.476;5.700;2023-06-10T07:50:00;25.60;80.90
58582;DHT22;44361;51.476;5.700;2023-06-10T07:52:26;25.80;79.40
58582;DHT22;44361;51.476;5.700;2023-06-10T07:54:51;26.00;78.90
58582;DHT22;44361;51.476;5.700;2023-06-10T07:57:17;25.80;78.00
58582;DHT22;44361;51.476;5.700;2023-06-10T07:59:43;25.80;77.60
58582;DHT22;44361;51.476;5.700;2023-06-10T08:02:09;25.80;77.70
58582;DHT22;44361;51.476;5.700;2023-06-10T08:04:35;26.00;77.10
58582;DHT22;44361;51.476;5.700;2023-06-10T08:07:01;26.00;76.90
58582;DHT22;44361;51.476;5.700;2023-06-10T08:09:27;26.20;77.80
58582;DHT22;44361;51.476;5.700;2023-06-10T08:11:53;26.20;75.90
58582;DHT22;44361;51.476;5.700;2023-06-10T08:14:18;26.30;75.90
58582;DHT22;44361;51.476;5.700;2023-06-10T08:16:44;26.60;74.80
58582;DHT22;44361;51.476;5.700;2023-06-10T08:19:10;26.80;73.60
58582;DHT22;44361;51.476;5.700;2023-06-10T08:21:35;26.90;73.80
58582;DHT22;44361;51.476;5.700;2023-06-10T08:24:06;26.90;73.60
58582;DHT22;44361;51.476;5.700;2023-06-10T08:26:31;27.20;73.10
58582;DHT22;44361;51.476;5.700;2023-06-10T08:28:57;27.30;70.80
58582;DHT22;44361;51.476;5.700;2023-06-10T08:31:22;27.30;71.80
58582;DHT22;44361;51.476;5.700;2023-06-10T08:33:48;27.50;73.00
58582;DHT22;44361;51.476;5.700;2023-06-10T08:36:13;27.50;70.60
58582;DHT22;44361;51.476;5.700;2023-06-10T08:38:39;27.70;71.30
58582;DHT22;44361;51.476;5.700;2023-06-10T08:41:05;27.90;69.20
58582;DHT22;44361;51.476;5.700;2023-06-10T08:43:43;27.70;68.00
58582;DHT22;44361;51.476;5.700;2023-06-10T08:46:09;27.90;67.80
58582;DHT22;44361;51.476;5.700;2023-06-10T08:48:41;28.10;67.80
58582;DHT22;44361;51.476;5.700;2023-06-10T08:51:10;28.10;67.20
58582;DHT22;44361;51.476;5.700;2023-06-10T08:53:37;28.20;66.10
58582;DHT22;44361;51.476;5.700;2023-06-10T08:56:04;28.20;65.50
58582;DHT22;44361;51.476;5.700;2023-06-10T08:58:32;28.00;64.90
58582;DHT22;44361;51.476;5.700;2023-06-10T09:00:59;28.10;65.40
58582;DHT22;44361;51.476;5.700;2023-06-10T09:03:25;28.10;64.60
58582;DHT22;44361;51.476;5.700;2023-06-10T09:05:51;28.20;66.00
58582;DHT22;44361;51.476;5.700;2023-06-10T09:08:17;28.20;64.00
58582;DHT22;44361;51.476;5.700;2023-06-10T09:10:42;28.40;63.70
58582;DHT22;44361;51.476;5.700;2023-06-10T09:13:08;28.40;65.10
58582;DHT22;44361;51.476;5.700;2023-06-10T09:15:33;28.60;63.30
58582;DHT22;44361;51.476;5.700;2023-06-10T09:17:59;28.80;63.30
58582;DHT22;44361;51.476;5.700;2023-06-10T09:20:25;28.80;65.40
58582;DHT22;44361;51.476;5.700;2023-06-10T09:22:51;29.20;63.20
58582;DHT22;44361;51.476;5.700;2023-06-10T09:25:17;29.10;64.40
58582;DHT22;44361;51.476;5.700;2023-06-10T09:27:52;29.10;62.20
58582;DHT22;44361;51.476;5.700;2023-06-10T09:30:27;29.20;62.90
58582;DHT22;44361;51.476;5.700;2023-06-10T09:32:54;29.10;63.40
58582;DHT22;44361;51.476;5.700;2023-06-10T09:35:22;29.10;63.50
58582;DHT22;44361;51.476;5.700;2023-06-10T09:37:53;29.00;62.20
58582;DHT22;44361;51.476;5.700;2023-06-10T09:40:19;28.80;62.60
58582;DHT22;44361;51.476;5.700;2023-06-10T09:42:45;29.00;63.40
58582;DHT22;44361;51.476;5.700;2023-06-10T09:45:10;29.40;63.80
58582;DHT22;44361;51.476;5.700;2023-06-10T09:47:36;28.90;62.30
58582;DHT22;44361;51.476;5.700;2023-06-10T09:50:02;28.70;62.10
58582;DHT22;44361;51.476;5.700;2023-06-10T09:52:29;28.90;63.20
58582;DHT22;44361;51.476;5.700;2023-06-10T09:55:02;29.10;62.60
58582;DHT22;44361;51.476;5.700;2023-06-10T09:57:31;29.20;62.80
58582;DHT22;44361;51.476;5.700;2023-06-10T10:00:11;29.40;62.00
58582;DHT22;44361;51.476;5.700;2023-06-10T10:02:57;29.70;61.80
58582;DHT22;44361;51.476;5.700;2023-06-10T10:05:23;29.90;61.20
58582;DHT22;44361;51.476;5.700;2023-06-10T10:07:49;29.80;60.20
58582;DHT22;44361;51.476;5.700;2023-06-10T10:10:16;29.80;60.20
58582;DHT22;44361;51.476;5.700;2023-06-10T10:12:42;29.70;61.10
58582;DHT22;44361;51.476;5.700;2023-06-10T10:15:09;29.70;61.10
58582;DHT22;44361;51.476;5.700;2023-06-10T10:17:40;29.60;60.00
58582;DHT22;44361;51.476;5.700;2023-06-10T10:20:07;29.90;59.70
58582;DHT22;44361;51.476;5.700;2023-06-10T10:22:37;29.80;59.50
58582;DHT22;44361;51.476;5.700;2023-06-10T10:25:11;29.80;60.00
58582;DHT22;44361;51.476;5.700;2023-06-10T10:27:55;29.90;60.60
58582;DHT22;44361;51.476;5.700;2023-06-10T10:30:22;30.40;59.90
58582;DHT22;44361;51.476;5.700;2023-06-10T10:33:03;30.20;58.80
58582;DHT22;44361;51.476;5.700;2023-06-10T10:35:31;30.20;59.40
58582;DHT22;44361;51.476;5.700;2023-06-10T10:37:58;30.10;59.50
58582;DHT22;44361;51.476;5.700;2023-06-10T10:40:25;30.20;59.60
58582;DHT22;44361;51.476;5.700;2023-06-10T10:42:52;30.20;59.50
58582;DHT22;44361;51.476;5.700;2023-06-10T10:45:18;30.50;58.00
58582;DHT22;44361;51.476;5.700;2023-06-10T10:47:45;30.60;58.80
58582;DHT22;44361;51.476;5.700;2023-06-10T10:50:19;30.60;57.70
58582;DHT22;44361;51.476;5.700;2023-06-10T10:52:55;30.70;57.60
58582;DHT22;44361;51.476;5.700;2023-06-10T10:55:22;30.60;57.40
58582;DHT22;44361;51.476;5.700;2023-06-10T10:58:08;30.70;57.30
58582;DHT22;44361;51.476;5.700;2023-06-10T11:00:36;31.10;57.00
58582;DHT22;44361;51.476;5.700;2023-06-10T11:05:47;31.30;56.50
58582;DHT22;44361;51.476;5.700;2023-06-10T11:08:15;31.20;56.50
58582;DHT22;44361;51.476;5.700;2023-06-10T11:10:51;31.00;55.90
58582;DHT22;44361;51.476;5.700;2023-06-10T11:13:21;30.70;57.10
58582;DHT22;44361;51.476;5.700;2023-06-10T11:15:48;30.90;56.70
58582;DHT22;44361;51.476;5.700;2023-06-10T11:18:23;31.30;55.20
58582;DHT22;44361;51.476;5.700;2023-06-10T11:31:22;31.00;54.50
58582;DHT22;44361;51.476;5.700;2023-06-10T11:34:04;31.10;53.10
58582;DHT22;44361;51.476;5.700;2023-06-10T11:36:31;31.20;53.90
58582;DHT22;44361;51.476;5.700;2023-06-10T11:39:02;31.50;53.60
58582;DHT22;44361;51.476;5.700;2023-06-10T11:41:29;31.40;54.30
58582;DHT22;44361;51.476;5.700;2023-06-10T11:43:55;31.40;53.80
58582;DHT22;44361;51.476;5.700;2023-06-10T11:46:23;31.20;53.30
58582;DHT22;44361;51.476;5.700;2023-06-10T11:48:56;31.50;53.60
58582;DHT22;44361;51.476;5.700;2023-06-10T11:51:24;31.30;54.90
58582;DHT22;44361;51.476;5.700;2023-06-10T11:53:50;31.40;53.90
58582;DHT22;44361;51.476;5.700;2023-06-10T11:56:20;31.30;53.60
58582;DHT22;44361;51.476;5.700;2023-06-10T11:58:55;31.60;53.50
58582;DHT22;44361;51.476;5.700;2023-06-10T12:01:23;31.50;52.80
58582;DHT22;44361;51.476;5.700;2023-06-10T12:06:46;31.40;53.00
58582;DHT22;44361;51.476;5.700;2023-06-10T12:09:27;31.70;53.30
58582;DHT22;44361;51.476;5.700;2023-06-10T12:12:04;32.00;53.60
58582;DHT22;44361;51.476;5.700;2023-06-10T12:14:51;31.80;53.50
58582;DHT22;44361;51.476;5.700;2023-06-10T12:17:21;31.70;51.00
58582;DHT22;44361;51.476;5.700;2023-06-10T12:19:47;31.30;52.20
58582;DHT22;44361;51.476;5.700;2023-06-10T12:22:14;31.70;52.10
58582;DHT22;44361;51.476;5.700;2023-06-10T12:24:57;32.00;50.90
58582;DHT22;44361;51.476;5.700;2023-06-10T12:27:25;32.30;50.40
58582;DHT22;44361;51.476;5.700;2023-06-10T12:29:51;32.20;49.90
58582;DHT22;44361;51.476;5.700;2023-06-10T12:32:22;32.60;50.70
58582;DHT22;44361;51.476;5.700;2023-06-10T12:35:03;32.50;50.60
58582;DHT22;44361;51.476;5.700;2023-06-10T12:37:30;32.40;51.40
58582;DHT22;44361;51.476;5.700;2023-06-10T12:39:55;31.90;51.50
58582;DHT22;44361;51.476;5.700;2023-06-10T12:42:22;31.80;50.90
58582;DHT22;44361;51.476;5.700;2023-06-10T12:44:53;31.90;51.50
58582;DHT22;44361;51.476;5.700;2023-06-10T12:47:19;32.40;50.10
58582;DHT22;44361;51.476;5.700;2023-06-10T12:49:45;32.40;50.70
58582;DHT22;44361;51.476;5.700;2023-06-10T12:52:10;32.20;50.00
58582;DHT22;44361;51.476;5.700;2023-06-10T12:54:36;31.70;51.20
58582;DHT22;44361;51.476;5.700;2023-06-10T12:57:02;31.90;50.60
58582;DHT22;44361;51.476;5.700;2023-06-10T12:59:28;31.80;50.40
58582;DHT22;44361;51.476;5.700;2023-06-10T13:01:54;32.10;50.90
58582;DHT22;44361;51.476;5.700;2023-06-10T13:04:20;32.20;50.90
58582;DHT22;44361;51.476;5.700;2023-06-10T13:06:47;32.20;49.50
58582;DHT22;44361;51.476;5.700;2023-06-10T13:09:14;31.90;50.20
58582;DHT22;44361;51.476;5.700;2023-06-10T13:11:40;31.70;49.10
58582;DHT22;44361;51.476;5.700;2023-06-10T13:14:06;31.80;48.80
58582;DHT22;44361;51.476;5.700;2023-06-10T13:16:32;31.30;49.90
58582;DHT22;44361;51.476;5.700;2023-06-10T13:18:58;31.50;49.60
58582;DHT22;44361;51.476;5.700;2023-06-10T13:21:24;32.00;50.00
58582;DHT22;44361;51.476;5.700;2023-06-10T13:23:50;32.30;49.00
58582;DHT22;44361;51.476;5.700;2023-06-10T13:26:16;32.50;49.40
58582;DHT22;44361;51.476;5.700;2023-06-10T13:28:45;32.50;48.80
58582;DHT22;44361;51.476;5.700;2023-06-10T13:31:11;32.50;48.30
58582;DHT22;44361;51.476;5.700;2023-06-10T13:33:37;32.70;48.60
58582;DHT22;44361;51.476;5.700;2023-06-10T13:36:03;33.30;47.70
58582;DHT22;44361;51.476;5.700;2023-06-10T13:38:28;33.20;46.80
58582;DHT22;44361;51.476;5.700;2023-06-10T13:40:54;33.20;46.70
58582;DHT22;44361;51.476;5.700;2023-06-10T13:43:19;33.40;45.50
58582;DHT22;44361;51.476;5.700;2023-06-10T13:45:45;33.50;45.00
58582;DHT22;44361;51.476;5.700;2023-06-10T13:48:11;33.40;45.80
58582;DHT22;44361;51.476;5.700;2023-06-10T13:50:37;33.60;44.40
58582;DHT22;44361;51.476;5.700;2023-06-10T13:53:03;33.60;44.40
58582;DHT22;44361;51.476;5.700;2023-06-10T13:55:28;33.50;45.80
58582;DHT22;44361;51.476;5.700;2023-06-10T13:57:54;33.50;46.20
58582;DHT22;44361;51.476;5.700;2023-06-10T14:00:19;33.20;46.20
58582;DHT22;44361;51.476;5.700;2023-06-10T14:02:45;32.80;46.10
58582;DHT22;44361;51.476;5.700;2023-06-10T14:05:11;32.70;46.70
58582;DHT22;44361;51.476;5.700;2023-06-10T14:07:37;32.30;46.60
58582;DHT22;44361;51.476;5.700;2023-06-10T14:10:03;32.10;47.00
58582;DHT22;44361;51.476;5.700;2023-06-10T14:12:29;32.20;48.00
58582;DHT22;44361;51.476;5.700;2023-06-10T14:14:55;31.90;47.90
58582;DHT22;44361;51.476;5.700;2023-06-10T14:17:20;31.90;47.90
58582;DHT22;44361;51.476;5.700;2023-06-10T14:19:46;32.50;47.60
58582;DHT22;44361;51.476;5.700;2023-06-10T14:22:12;32.80;47.10
58582;DHT22;44361;51.476;5.700;2023-06-10T14:24:37;33.10;46.80
58582;DHT22;44361;51.476;5.700;2023-06-10T14:27:03;33.20;47.30
58582;DHT22;44361;51.476;5.700;2023-06-10T14:29:29;33.40;47.90
58582;DHT22;44361;51.476;5.700;2023-06-10T14:31:56;33.70;47.50
58582;DHT22;44361;51.476;5.700;2023-06-10T14:34:21;33.60;46.20
58582;DHT22;44361;51.476;5.700;2023-06-10T14:36:48;33.10;46.50
58582;DHT22;44361;51.476;5.700;2023-06-10T14:39:14;32.00;47.60
58582;DHT22;44361;51.476;5.700;2023-06-10T14:41:39;31.50;48.60
58582;DHT22;44361;51.476;5.700;2023-06-10T14:44:05;31.10;48.70
58582;DHT22;44361;51.476;5.700;2023-06-10T14:46:30;31.50;48.20
58582;DHT22;44361;51.476;5.700;2023-06-10T14:48:56;31.80;48.60
58582;DHT22;44361;51.476;5.700;2023-06-10T14:51:22;32.30;47.40
58582;DHT22;44361;51.476;5.700;2023-06-10T14:53:47;32.60;48.10
58582;DHT22;44361;51.476;5.700;2023-06-10T14:56:12;32.90;46.90
58582;DHT22;44361;51.476;5.700;2023-06-10T14:58:38;32.90;47.30
58582;DHT22;44361;51.476;5.700;2023-06-10T15:01:04;33.60;46.60
58582;DHT22;44361;51.476;5.700;2023-06-10T15:03:29;33.30;47.20
58582;DHT22;44361;51.476;5.700;2023-06-10T15:05:55;33.30;47.20
58582;DHT22;44361;51.476;5.700;2023-06-10T15:08:20;32.80;46.40
58582;DHT22;44361;51.476;5.700;2023-06-10T15:10:46;32.40;46.90
58582;DHT22;44361;51.476;5.700;2023-06-10T15:13:13;31.80;47.80
58582;DHT22;44361;51.476;5.700;2023-06-10T15:15:39;32.10;47.70
58582;DHT22;44361;51.476;5.700;2023-06-10T15:18:04;32.30;48.00
58582;DHT22;44361;51.476;5.700;2023-06-10T15:20:30;32.60;48.00
58582;DHT22;44361;51.476;5.700;2023-06-10T15:22:56;33.20;47.80
58582;DHT22;44361;51.476;5.700;2023-06-10T15:25:21;33.90;47.30
58582;DHT22;44361;51.476;5.700;2023-06-10T15:27:47;34.00;47.00
58582;DHT22;44361;51.476;5.700;2023-06-10T15:30:12;33.40;47.50
58582;DHT22;44361;51.476;5.700;2023-06-10T15:32:38;32.60;47.70
58582;DHT22;44361;51.476;5.700;2023-06-10T15:35:04;31.60;48.30
58582;DHT22;44361;51.476;5.700;2023-06-10T15:37:30;31.20;48.80
58582;DHT22;44361;51.476;5.700;2023-06-10T15:39:55;31.00;49.40
58582;DHT22;44361;51.476;5.700;2023-06-10T15:42:21;30.90;50.80
58582;DHT22;44361;51.476;5.700;2023-06-10T15:44:47;31.50;50.40
58582;DHT22;44361;51.476;5.700;2023-06-10T15:47:12;31.90;49.40